createdAt,value
2018-12-04T07:13:23.018Z,99.90
2018-12-04T07:19:26.477Z,99.90
2018-12-04T07:25:30.616Z,99.90
2018-12-04T07:31:34.909Z,99.90
2018-12-04T07:37:38.350Z,99.90
2018-12-04T07:43:41.842Z,99.90
2018-12-04T07:49:45.411Z,99.90
2018-12-04T07:55:48.851Z,99.90
2018-12-04T08:01:52.295Z,99.90
2018-12-04T08:07:55.725Z,99.90
2018-12-04T08:13:59.216Z,99.90
2018-12-04T08:20:02.671Z,99.90
2018-12-04T08:26:06.082Z,99.90
2018-12-04T08:32:09.999Z,99.90
2018-12-04T08:38:13.542Z,99.90
2018-12-04T08:44:16.994Z,99.90
2018-12-04T08:50:26.921Z,99.90
2018-12-04T08:56:30.330Z,99.90
2018-12-04T09:02:33.891Z,99.90
2018-12-04T09:08:37.314Z,99.90
2018-12-04T09:14:40.782Z,99.90
2018-12-04T09:20:44.224Z,99.90
2018-12-04T09:26:47.657Z,99.90
2018-12-04T09:32:51.194Z,99.90
2018-12-04T09:38:54.620Z,99.90
2018-12-04T09:44:58.074Z,99.90
2018-12-04T09:51:01.544Z,99.90
2018-12-04T09:57:04.964Z,99.90
2018-12-04T10:03:08.387Z,99.90
2018-12-04T10:09:11.811Z,99.90
2018-12-04T10:15:15.455Z,99.60
2018-12-04T10:21:18.889Z,99.20
2018-12-04T10:27:22.310Z,98.70
2018-12-04T10:33:25.731Z,97.60
2018-12-04T10:39:29.159Z,97.50
2018-12-04T10:45:32.598Z,97.80
2018-12-04T10:51:36.026Z,97.30
2018-12-04T10:57:39.490Z,97.10
2018-12-04T11:03:42.952Z,96.20
2018-12-04T11:09:46.423Z,95.80
2018-12-04T11:15:49.871Z,95.50
2018-12-04T11:21:53.308Z,95.70
2018-12-04T11:27:56.778Z,93.40
2018-12-04T11:34:01.006Z,93.40
2018-12-04T11:40:04.775Z,92.40
2018-12-04T11:46:08.220Z,92.00
2018-12-04T11:52:11.664Z,91.70
2018-12-04T11:58:15.232Z,91.90
2018-12-04T12:04:18.755Z,90.90
2018-12-04T12:10:22.205Z,91.50
2018-12-04T12:16:25.616Z,90.70
2018-12-04T12:22:29.179Z,91.00
2018-12-04T12:28:32.630Z,90.00
2018-12-04T12:34:36.049Z,91.30
2018-12-04T12:40:39.473Z,90.40
2018-12-04T12:46:43.326Z,90.70
2018-12-04T12:52:46.742Z,90.50
2018-12-04T12:58:50.186Z,89.40
2018-12-04T13:04:53.635Z,91.10
2018-12-04T13:10:57.050Z,90.30
2018-12-04T13:17:00.478Z,89.00
2018-12-04T13:23:03.932Z,89.90
2018-12-04T13:29:07.362Z,89.90
2018-12-04T13:35:10.798Z,92.70
2018-12-04T13:41:14.239Z,87.10
2018-12-04T13:47:18.002Z,89.90
2018-12-04T13:53:21.408Z,90.40
2018-12-04T13:59:24.865Z,87.00
2018-12-04T14:05:28.271Z,89.00
2018-12-04T14:11:31.717Z,90.00
2018-12-04T14:17:35.164Z,88.90
2018-12-04T14:23:38.588Z,89.20
2018-12-04T14:29:42.152Z,90.00
2018-12-04T14:35:45.773Z,90.00
2018-12-04T14:41:49.460Z,90.00
2018-12-04T14:47:53.115Z,88.90
2018-12-04T14:53:56.650Z,90.30
2018-12-04T15:00:00.107Z,91.00
2018-12-04T15:06:03.856Z,91.60
2018-12-04T15:12:07.392Z,91.20
2018-12-04T15:18:11.076Z,90.80
2018-12-04T15:24:14.642Z,92.00
2018-12-04T15:30:18.443Z,91.30
2018-12-04T15:36:21.978Z,90.70
2018-12-04T15:42:25.446Z,92.70
2018-12-04T15:48:28.997Z,93.20
2018-12-04T15:54:32.548Z,93.30
2018-12-04T16:00:36.070Z,92.40
2018-12-04T16:06:39.528Z,91.80
2018-12-04T16:12:42.979Z,92.30
2018-12-04T16:18:46.409Z,92.80
2018-12-04T16:24:49.992Z,93.60
2018-12-04T16:30:53.541Z,94.70
2018-12-04T16:43:10.314Z,96.60
2018-12-04T16:49:13.848Z,97.60
2018-12-04T16:55:17.314Z,97.10
2018-12-04T17:01:20.751Z,96.80
2018-12-04T17:07:24.208Z,96.90
2018-12-04T17:13:27.657Z,97.30
2018-12-04T17:19:31.124Z,96.60
2018-12-04T17:25:34.572Z,97.10
2018-12-04T17:31:38.037Z,96.40
2018-12-04T17:37:41.710Z,96.60
2018-12-04T17:43:45.207Z,96.60
2018-12-04T17:49:48.858Z,96.70
2018-12-04T17:55:52.998Z,97.40
2018-12-04T18:01:56.428Z,98.20
2018-12-04T18:08:00.002Z,97.50
2018-12-04T18:14:04.044Z,97.10
2018-12-04T18:20:08.036Z,97.40
2018-12-04T18:26:11.538Z,98.80
2018-12-04T18:32:15.012Z,98.00
2018-12-04T18:38:18.485Z,97.70
2018-12-04T18:44:22.067Z,98.50
2018-12-04T18:50:25.516Z,97.80
2018-12-04T18:56:29.787Z,98.70
2018-12-04T19:02:33.362Z,98.20
2018-12-04T19:08:42.218Z,98.50
2018-12-04T19:14:45.679Z,97.60
2018-12-04T19:20:49.783Z,97.80
2018-12-04T19:26:53.544Z,98.00
2018-12-04T19:32:57.203Z,98.80
2018-12-04T19:39:00.647Z,98.70
2018-12-04T19:45:04.359Z,99.00
2018-12-04T19:51:07.813Z,99.40
2018-12-04T19:57:11.351Z,98.90
2018-12-04T20:03:14.848Z,98.30
2018-12-04T20:09:18.279Z,97.80
2018-12-04T20:15:21.727Z,99.00
2018-12-04T20:21:25.149Z,98.50
2018-12-04T20:27:28.625Z,98.30
2018-12-04T20:33:32.129Z,98.20
2018-12-04T20:39:35.779Z,98.20
2018-12-04T20:45:39.408Z,97.90
2018-12-04T20:51:42.856Z,97.40
2018-12-04T20:57:46.320Z,97.50
2018-12-04T21:03:49.875Z,97.70
2018-12-04T21:09:53.708Z,97.40
2018-12-04T21:15:57.760Z,97.80
2018-12-04T21:22:01.474Z,98.20
2018-12-04T21:28:10.400Z,98.20
2018-12-04T21:34:19.416Z,99.00
2018-12-04T21:40:28.392Z,99.10
2018-12-04T21:46:37.016Z,97.80
2018-12-04T21:52:40.420Z,97.70
2018-12-04T21:58:44.050Z,97.80
2018-12-04T22:04:47.527Z,97.70
2018-12-04T22:10:50.972Z,97.50
2018-12-04T22:16:54.400Z,97.50
2018-12-04T22:22:57.814Z,97.80
2018-12-04T22:29:01.326Z,98.00
2018-12-04T22:35:04.982Z,97.90
2018-12-04T22:41:09.250Z,98.10
2018-12-04T22:47:12.666Z,98.40
2018-12-04T22:53:16.093Z,99.10
2018-12-04T22:59:19.747Z,98.70
2018-12-04T23:05:23.444Z,98.80
2018-12-04T23:11:27.164Z,98.80
2018-12-04T23:17:30.717Z,99.00
2018-12-04T23:23:34.144Z,99.10
2018-12-04T23:29:37.565Z,99.00
2018-12-04T23:35:41.661Z,99.00
2018-12-04T23:41:45.091Z,99.00
2018-12-04T23:47:48.562Z,99.10
2018-12-04T23:53:52.207Z,98.90
2018-12-04T23:59:55.629Z,98.90
